createdAt,value
2022-12-19T00:01:04.290Z,41.53
2022-12-19T00:04:10.364Z,44.65
2022-12-19T00:07:13.180Z,42.13
2022-12-19T00:10:16.304Z,65.12
2022-12-19T00:13:18.879Z,42.97
2022-12-19T00:16:27.867Z,47.28
2022-12-19T00:19:30.744Z,40.80
2022-12-19T00:22:33.898Z,37.75
2022-12-19T00:25:36.736Z,46.67
2022-12-19T00:28:47.855Z,46.95
2022-12-19T00:31:50.579Z,52.58
2022-12-19T00:34:53.936Z,47.38
2022-12-19T00:37:56.827Z,44.60
2022-12-19T00:41:11.102Z,40.60
2022-12-19T00:44:14.700Z,40.08
2022-12-19T00:47:17.919Z,47.47
2022-12-19T00:50:21.031Z,40.17
2022-12-19T00:53:24.258Z,42.60
2022-12-19T00:56:36.192Z,61.10
2022-12-19T00:59:42.859Z,50.50
2022-12-19T01:02:45.953Z,47.67
2022-12-19T01:05:51.072Z,44.65
2022-12-19T01:08:55.145Z,45.88
2022-12-19T01:12:17.621Z,49.92
2022-12-19T01:15:21.258Z,46.28
2022-12-19T01:18:25.353Z,40.53
2022-12-19T01:21:28.221Z,39.72
2022-12-19T01:24:31.440Z,42.88
2022-12-19T01:27:34.402Z,48.50
2022-12-19T01:30:40.167Z,49.53
2022-12-19T01:33:43.098Z,45.33
2022-12-19T01:36:48.400Z,32.00
2022-12-19T01:39:51.144Z,45.75
2022-12-19T01:42:54.188Z,53.80
2022-12-19T01:46:06.924Z,52.65
2022-12-19T01:49:32.352Z,52.90
2022-12-19T01:52:35.395Z,59.25
2022-12-19T01:55:40.065Z,55.70
2022-12-19T01:58:46.668Z,64.65
2022-12-19T02:01:53.219Z,54.40
2022-12-19T02:04:57.923Z,48.83
2022-12-19T02:08:01.456Z,59.22
2022-12-19T02:11:05.842Z,46.60
2022-12-19T02:14:10.165Z,50.63
2022-12-19T02:17:53.367Z,51.00
2022-12-19T02:21:15.005Z,47.88
2022-12-19T02:24:33.445Z,51.88
2022-12-19T02:27:53.892Z,50.90
2022-12-19T02:31:17.381Z,52.25
2022-12-19T02:34:59.518Z,53.15
2022-12-19T02:38:12.858Z,47.50
2022-12-19T02:41:27.720Z,48.28
2022-12-19T02:47:47.050Z,42.30
2022-12-19T02:50:50.628Z,50.03
2022-12-19T02:53:53.892Z,46.10
2022-12-19T02:57:24.221Z,52.83
2022-12-19T03:00:34.677Z,44.38
2022-12-19T03:03:51.521Z,44.40
2022-12-19T03:07:09.749Z,42.25
2022-12-19T03:10:27.649Z,44.10
2022-12-19T03:13:59.295Z,53.67
2022-12-19T03:17:05.093Z,43.80
2022-12-19T03:20:21.706Z,47.35
2022-12-19T03:23:24.840Z,43.97
2022-12-19T03:26:36.621Z,38.08
2022-12-19T03:29:44.000Z,43.30
2022-12-19T03:32:47.993Z,52.62
2022-12-19T03:35:52.700Z,52.35
2022-12-19T03:38:56.592Z,59.20
2022-12-19T03:42:19.286Z,45.67
2022-12-19T03:45:27.378Z,48.08
2022-12-19T03:48:51.285Z,50.78
2022-12-19T03:52:04.920Z,49.55
2022-12-19T03:55:33.994Z,50.05
2022-12-19T03:58:39.029Z,62.72
2022-12-19T04:01:43.145Z,59.05
2022-12-19T04:04:51.383Z,48.35
2022-12-19T04:07:56.970Z,48.20
2022-12-19T04:11:05.518Z,54.25
2022-12-19T04:14:12.193Z,51.28
2022-12-19T04:17:35.269Z,53.72
2022-12-19T04:20:41.892Z,54.70
2022-12-19T04:23:52.563Z,54.25
2022-12-19T04:26:56.371Z,47.83
2022-12-19T04:30:00.181Z,43.75
2022-12-19T04:33:03.168Z,45.85
2022-12-19T04:36:06.807Z,38.92
2022-12-19T04:39:09.705Z,47.80
2022-12-19T04:42:12.988Z,49.78
2022-12-19T04:45:16.842Z,52.38
2022-12-19T04:48:21.375Z,43.20
2022-12-19T04:51:24.290Z,44.08
2022-12-19T04:54:28.392Z,44.92
2022-12-19T04:57:32.336Z,55.22
2022-12-19T05:00:35.789Z,57.10
2022-12-19T05:03:38.748Z,56.88
2022-12-19T05:06:42.080Z,58.47
2022-12-19T05:09:45.009Z,59.50
2022-12-19T05:12:48.330Z,54.45
2022-12-19T05:16:04.820Z,40.12
2022-12-19T05:19:08.556Z,42.08
2022-12-19T05:22:12.763Z,45.78
2022-12-19T05:25:16.062Z,45.50
2022-12-19T05:28:20.119Z,45.70
2022-12-19T05:31:23.406Z,48.83
2022-12-19T05:34:26.427Z,47.90
2022-12-19T05:37:29.652Z,52.30
2022-12-19T05:40:32.572Z,45.67
2022-12-19T05:43:35.897Z,54.50
2022-12-19T05:46:39.174Z,57.95
2022-12-19T05:49:42.382Z,51.20
2022-12-19T05:52:45.277Z,51.00
2022-12-19T05:55:48.466Z,51.13
2022-12-19T05:58:51.392Z,53.08
2022-12-19T06:01:55.704Z,55.72
2022-12-19T06:04:59.125Z,54.65
2022-12-19T06:08:02.373Z,45.42
2022-12-19T06:11:07.122Z,47.75
2022-12-19T06:14:10.070Z,50.37
2022-12-19T06:17:13.289Z,46.78
2022-12-19T06:20:16.160Z,45.97
2022-12-19T06:23:19.230Z,48.80
2022-12-19T06:26:22.703Z,49.30
2022-12-19T06:29:25.832Z,48.10
2022-12-19T06:32:30.479Z,49.45
2022-12-19T06:35:46.693Z,53.22
2022-12-19T06:38:52.156Z,48.80
2022-12-19T06:42:15.146Z,40.50
2022-12-19T06:45:18.679Z,46.83
2022-12-19T06:48:21.910Z,36.97
2022-12-19T06:51:24.812Z,33.70
2022-12-19T06:54:28.311Z,41.53
2022-12-19T06:57:31.205Z,41.92
2022-12-19T07:00:37.221Z,38.80
2022-12-19T07:03:41.226Z,38.25
2022-12-19T07:06:49.015Z,37.92
2022-12-19T07:09:52.161Z,35.22
2022-12-19T07:12:55.529Z,34.78
2022-12-19T07:16:01.329Z,39.25
2022-12-19T07:19:05.264Z,42.15
2022-12-19T07:22:09.774Z,36.42
2022-12-19T07:25:13.083Z,40.70
2022-12-19T07:28:17.013Z,28.45
2022-12-19T07:31:20.324Z,33.50
2022-12-19T07:34:23.289Z,33.60
2022-12-19T07:37:26.537Z,40.85
2022-12-19T07:40:29.480Z,36.90
2022-12-19T07:43:32.661Z,46.63
2022-12-19T07:46:35.899Z,45.80
2022-12-19T07:49:39.090Z,51.70
2022-12-19T07:52:42.463Z,44.03
2022-12-19T07:55:45.713Z,48.40
2022-12-19T07:58:48.660Z,52.28
2022-12-19T08:01:52.422Z,55.33
2022-12-19T08:04:55.770Z,53.75
2022-12-19T08:07:58.943Z,55.17
2022-12-19T08:11:22.395Z,47.90
2022-12-19T08:14:25.363Z,55.25
2022-12-19T08:17:28.726Z,47.80
2022-12-19T08:20:31.703Z,40.33
2022-12-19T08:23:34.999Z,41.00
2022-12-19T08:26:41.839Z,34.50
2022-12-19T08:29:47.390Z,34.38
2022-12-19T08:32:50.363Z,34.08
2022-12-19T08:35:54.249Z,34.00
2022-12-19T08:38:57.543Z,32.40
2022-12-19T08:42:01.356Z,28.48
2022-12-19T08:45:05.022Z,29.02
2022-12-19T08:48:21.117Z,36.65
2022-12-19T08:51:24.614Z,33.70
2022-12-19T08:54:27.831Z,26.27
2022-12-19T08:57:30.799Z,25.52
2022-12-19T09:00:34.140Z,32.78
2022-12-19T09:03:44.061Z,26.70
2022-12-19T09:07:00.678Z,27.17
2022-12-19T09:10:04.301Z,33.58
2022-12-19T09:13:08.942Z,29.25
2022-12-19T09:16:20.902Z,31.30
2022-12-19T09:19:24.099Z,34.60
2022-12-19T09:22:27.783Z,30.77
2022-12-19T09:25:32.890Z,29.83
2022-12-19T09:28:36.661Z,27.48
2022-12-19T09:31:40.251Z,29.80
2022-12-19T09:34:43.168Z,29.75
2022-12-19T09:37:46.323Z,30.33
2022-12-19T09:41:07.655Z,29.12
2022-12-19T09:44:30.125Z,23.40
2022-12-19T09:47:34.327Z,27.92
2022-12-19T09:51:10.653Z,32.73
2022-12-19T09:57:40.175Z,26.20
2022-12-19T10:00:48.728Z,30.05
2022-12-19T10:04:04.005Z,26.80
2022-12-19T10:07:31.491Z,30.70
2022-12-19T10:12:37.533Z,32.20
2022-12-19T10:14:47.230Z,32.35
2022-12-19T10:18:16.645Z,31.80
2022-12-19T10:21:59.065Z,36.35
2022-12-19T10:25:09.413Z,27.65
2022-12-19T10:28:36.026Z,33.17
2022-12-19T10:31:59.859Z,25.60
2022-12-19T10:35:05.598Z,29.52
2022-12-19T10:38:23.103Z,36.30
2022-12-19T10:41:32.619Z,31.65
2022-12-19T10:44:38.845Z,25.08
2022-12-19T10:47:43.949Z,28.98
2022-12-19T10:53:59.622Z,30.05
2022-12-19T10:57:24.164Z,30.50
2022-12-19T11:00:28.231Z,30.17
2022-12-19T11:03:37.366Z,23.83
2022-12-19T11:06:57.056Z,28.77
2022-12-19T11:10:36.855Z,30.37
2022-12-19T11:19:02.518Z,29.50
2022-12-19T11:23:55.952Z,27.25
2022-12-19T11:29:25.901Z,33.63
2022-12-19T11:29:40.718Z,28.38
2022-12-19T11:29:54.359Z,26.05
2022-12-19T11:34:49.662Z,28.85
2022-12-19T11:38:00.361Z,33.97
2022-12-19T11:41:15.231Z,27.40
2022-12-19T11:44:27.948Z,31.40
2022-12-19T11:47:53.521Z,27.33
2022-12-19T11:51:32.403Z,29.15
2022-12-19T11:54:41.873Z,25.77
2022-12-19T11:57:45.835Z,25.20
2022-12-19T12:01:05.991Z,28.92
2022-12-19T12:04:40.653Z,26.15
2022-12-19T12:09:46.155Z,29.80
2022-12-19T12:16:13.436Z,29.42
2022-12-19T12:26:33.538Z,33.28
2022-12-19T12:31:20.310Z,28.52
2022-12-19T12:31:26.087Z,30.35
2022-12-19T12:31:43.406Z,30.77
2022-12-19T12:31:51.872Z,32.42
2022-12-19T12:35:41.443Z,29.58
2022-12-19T12:41:02.119Z,32.10
2022-12-19T12:44:10.349Z,34.05
2022-12-19T12:47:39.813Z,27.27
2022-12-19T12:50:42.842Z,30.48
2022-12-19T12:53:47.237Z,32.90
2022-12-19T12:56:50.103Z,33.20
2022-12-19T13:00:19.394Z,33.70
2022-12-19T13:03:25.298Z,33.80
2022-12-19T13:06:41.997Z,29.00
2022-12-19T13:09:45.861Z,31.33
2022-12-19T13:12:59.994Z,32.03
2022-12-19T13:16:41.230Z,29.23
2022-12-19T13:19:54.817Z,28.75
2022-12-19T13:23:00.403Z,26.95
2022-12-19T13:26:04.039Z,32.08
2022-12-19T13:29:59.180Z,30.50
2022-12-19T13:33:02.255Z,31.95
2022-12-19T13:38:47.798Z,29.17
2022-12-19T13:40:11.050Z,29.92
2022-12-19T13:43:49.041Z,29.10
2022-12-19T13:46:52.258Z,34.33
2022-12-19T13:49:55.991Z,29.98
2022-12-19T13:52:59.499Z,30.98
2022-12-19T13:56:05.557Z,30.30
2022-12-19T13:59:09.897Z,30.90
2022-12-19T14:02:28.225Z,34.90
2022-12-19T14:06:15.001Z,32.25
2022-12-19T14:10:24.026Z,29.80
2022-12-19T14:13:43.628Z,27.40
2022-12-19T14:16:17.513Z,30.58
2022-12-19T14:19:29.036Z,28.70
2022-12-19T14:22:32.777Z,29.67
2022-12-19T14:28:20.708Z,29.35
2022-12-19T14:30:28.908Z,27.27
2022-12-19T14:33:46.086Z,31.87
2022-12-19T14:36:27.132Z,31.90
2022-12-19T14:39:35.665Z,27.40
2022-12-19T14:43:59.410Z,28.65
2022-12-19T14:52:35.169Z,25.30
2022-12-19T14:54:24.478Z,30.75
2022-12-19T14:54:47.598Z,32.20
2022-12-19T14:57:01.563Z,25.50
2022-12-19T15:01:07.516Z,28.23
2022-12-19T15:04:49.607Z,31.40
2022-12-19T15:07:25.869Z,29.67
2022-12-19T15:11:03.942Z,32.47
2022-12-19T15:14:53.359Z,33.60
2022-12-19T15:17:24.636Z,31.53
2022-12-19T15:20:27.601Z,37.25
2022-12-19T15:23:32.868Z,33.03
2022-12-19T15:29:49.863Z,31.58
2022-12-19T15:32:53.367Z,30.58
2022-12-19T15:35:56.247Z,31.42
2022-12-19T15:39:00.325Z,30.45
2022-12-19T15:42:03.645Z,25.33
2022-12-19T15:45:08.142Z,30.83
2022-12-19T15:48:17.167Z,30.30
2022-12-19T15:51:20.330Z,34.80
2022-12-19T15:54:48.643Z,35.15
2022-12-19T15:57:48.648Z,35.97
2022-12-19T16:00:58.150Z,34.95
2022-12-19T16:04:03.560Z,37.45
2022-12-19T16:07:15.063Z,31.92
2022-12-19T16:10:18.504Z,38.65
2022-12-19T16:13:27.595Z,36.30
2022-12-19T16:16:30.857Z,31.60
2022-12-19T16:19:33.903Z,33.67
2022-12-19T16:22:38.918Z,30.77
2022-12-19T16:25:52.014Z,34.50
2022-12-19T16:28:55.260Z,34.13
2022-12-19T16:31:58.347Z,30.23
2022-12-19T16:35:01.572Z,36.65
2022-12-19T16:38:04.522Z,38.03
2022-12-19T16:41:23.927Z,35.67
2022-12-19T16:44:26.874Z,40.00
2022-12-19T16:47:30.132Z,32.45
2022-12-19T16:50:33.407Z,32.40
2022-12-19T16:53:36.647Z,35.33
2022-12-19T16:56:41.926Z,31.83
2022-12-19T16:59:46.509Z,34.38
2022-12-19T17:02:57.552Z,30.30
2022-12-19T17:06:01.367Z,34.83
2022-12-19T17:09:04.053Z,34.70
2022-12-19T17:12:10.050Z,32.28
2022-12-19T17:15:29.637Z,34.58
2022-12-19T17:18:35.373Z,33.92
2022-12-19T17:24:46.801Z,27.23
2022-12-19T17:27:52.129Z,34.33
2022-12-19T17:30:57.930Z,30.55
2022-12-19T17:37:05.457Z,35.65
2022-12-19T17:40:16.856Z,28.98
2022-12-19T17:43:20.822Z,32.50
2022-12-19T17:46:25.863Z,30.98
2022-12-19T17:52:37.122Z,28.38
2022-12-19T17:55:40.301Z,33.47
2022-12-19T17:58:44.966Z,33.28
2022-12-19T18:01:48.413Z,29.67
2022-12-19T18:04:52.703Z,31.77
2022-12-19T18:07:55.984Z,31.12
2022-12-19T18:11:02.276Z,34.30
2022-12-19T18:14:05.117Z,38.35
2022-12-19T18:17:12.388Z,35.47
2022-12-19T18:20:31.799Z,38.58
2022-12-19T18:23:35.758Z,38.38
2022-12-19T18:26:39.966Z,39.70
2022-12-19T18:29:43.251Z,39.75
2022-12-19T18:32:55.625Z,39.22
2022-12-19T18:35:59.233Z,30.58
2022-12-19T18:39:02.244Z,36.33
2022-12-19T18:42:19.695Z,34.17
2022-12-19T18:45:26.715Z,35.47
2022-12-19T18:48:33.175Z,37.22
2022-12-19T18:51:37.100Z,40.75
2022-12-19T18:54:40.425Z,33.00
2022-12-19T18:57:45.529Z,32.22
2022-12-19T19:00:51.990Z,39.10
2022-12-19T19:03:59.803Z,34.30
2022-12-19T19:07:02.896Z,35.63
2022-12-19T19:10:35.899Z,32.95
2022-12-19T19:13:40.740Z,33.78
2022-12-19T19:16:44.247Z,37.30
2022-12-19T19:19:47.782Z,31.58
2022-12-19T19:22:54.449Z,42.95
2022-12-19T19:25:58.385Z,36.42
2022-12-19T19:29:03.125Z,31.45
2022-12-19T19:32:06.692Z,34.75
2022-12-19T19:35:11.173Z,35.22
2022-12-19T19:38:17.022Z,35.95
2022-12-19T19:41:21.405Z,36.58
2022-12-19T19:44:26.998Z,36.08
2022-12-19T19:47:32.496Z,33.75
2022-12-19T19:50:36.658Z,37.60
2022-12-19T19:53:40.845Z,37.20
2022-12-19T19:56:44.902Z,31.95
2022-12-19T19:59:49.396Z,30.30
2022-12-19T20:02:53.156Z,27.70
2022-12-19T20:06:01.306Z,31.75
2022-12-19T20:09:13.484Z,26.10
2022-12-19T20:12:18.213Z,27.50
2022-12-19T20:15:21.243Z,32.78
2022-12-19T20:18:24.711Z,32.35
2022-12-19T20:21:29.611Z,32.83
2022-12-19T20:24:32.955Z,35.97
2022-12-19T20:27:36.206Z,32.63
2022-12-19T20:30:39.573Z,32.53
2022-12-19T20:33:42.775Z,35.78
2022-12-19T20:36:46.768Z,33.90
2022-12-19T20:39:49.818Z,33.50
2022-12-19T20:42:52.847Z,41.00
2022-12-19T20:46:04.524Z,34.22
2022-12-19T20:49:09.822Z,37.70
2022-12-19T20:52:13.030Z,40.17
2022-12-19T20:55:16.711Z,39.92
2022-12-19T20:58:19.834Z,41.20
2022-12-19T21:01:24.639Z,41.53
2022-12-19T21:04:28.046Z,34.88
2022-12-19T21:07:32.460Z,38.45
2022-12-19T21:10:35.739Z,35.35
2022-12-19T21:13:39.831Z,37.47
2022-12-19T21:16:42.917Z,36.67
2022-12-19T21:19:46.191Z,42.40
2022-12-19T21:22:49.291Z,37.35
2022-12-19T21:25:53.168Z,35.85
2022-12-19T21:28:58.185Z,37.03
2022-12-19T21:32:01.564Z,36.47
2022-12-19T21:35:05.547Z,37.42
2022-12-19T21:38:09.350Z,41.72
2022-12-19T21:41:12.791Z,37.28
2022-12-19T21:44:15.917Z,36.08
2022-12-19T21:47:18.884Z,37.55
2022-12-19T21:50:22.084Z,33.88
2022-12-19T21:53:25.893Z,41.42
2022-12-19T21:56:34.613Z,35.60
2022-12-19T21:59:37.550Z,37.60
2022-12-19T22:02:50.830Z,36.22
2022-12-19T22:06:04.896Z,32.28
2022-12-19T22:09:10.891Z,40.20
2022-12-19T22:12:14.547Z,36.50
2022-12-19T22:15:17.676Z,41.20
2022-12-19T22:18:20.968Z,35.40
2022-12-19T22:21:24.496Z,40.42
2022-12-19T22:24:28.893Z,38.08
2022-12-19T22:27:31.907Z,41.65
2022-12-19T22:30:36.107Z,41.53
2022-12-19T22:33:39.123Z,38.58
2022-12-19T22:36:44.403Z,35.42
2022-12-19T22:39:47.431Z,39.63
2022-12-19T22:42:52.271Z,40.47
2022-12-19T22:45:55.635Z,41.60
2022-12-19T22:49:01.676Z,47.20
2022-12-19T22:52:04.877Z,42.47
2022-12-19T22:55:08.494Z,38.70
2022-12-19T22:58:12.019Z,42.58
2022-12-19T23:01:26.593Z,42.47
2022-12-19T23:07:35.655Z,41.22
2022-12-19T23:10:38.722Z,35.40
2022-12-19T23:13:42.555Z,42.38
2022-12-19T23:16:45.717Z,42.78
2022-12-19T23:19:49.129Z,40.05
2022-12-19T23:22:52.547Z,39.15
2022-12-19T23:25:55.899Z,41.20
2022-12-19T23:29:01.490Z,42.55
2022-12-19T23:32:05.066Z,48.78
2022-12-19T23:35:08.472Z,45.70
2022-12-19T23:38:12.051Z,44.58
2022-12-19T23:41:16.179Z,50.30
2022-12-19T23:44:19.777Z,45.97
2022-12-19T23:47:23.518Z,44.67
2022-12-19T23:50:26.803Z,41.78
2022-12-19T23:53:30.793Z,49.05
2022-12-19T23:56:35.396Z,39.65
2022-12-19T23:59:38.249Z,49.15
